Majesty of the Seas — C6FZ8 — position and weather

sailwx.info

Track history (hours):
 
Tides and Currents Weather Stations Pressure Air Temp Water Temp Dewpoint Dewpoint Depression Visibility Wind Speed Wind Dir Waves Ship Positions

Majesty of the Seas (Bahamas)

Last reported at 2019-Jul-19 06:00 UTC. Time now 2019-Jul-20 01:40 UTC.
Position N 20°18' W 086°18'.

Length 268 m; draft 8 m.

Type: Ship. MMSI: 311734000.

Wind from 080 at 15 knots

Barometer 1015.3 mb
Air temperature 28.0 ° C
Visibility: greater than 10.8 NM
Dewpoint 25.2 ° C
Water temperature 30.1 ° C

Date/timePositionNaut miles runAvg speedWind from/ knotsBaromVisibWave heightAir tempDewpointWater temp
2019-Jul-19 06:00N 20°18' W 086°18'39416.4 080 / 151015.310.8 28.025.230.1
2019-Jul-18 06:00N 24°12' W 080°36'9714.2 100 / 121018.110.8 28.025.231.0
2019-Jul-17 23:08N 25°38' W 079°46'213.5
2019-Jul-17 22:58N 25°40' W 079°46'613.4
2019-Jul-17 22:30N 25°46' W 079°48'713.3
2019-Jul-17 22:00N 25°51' W 079°53'713.9
2019-Jul-17 21:30N 25°56' W 079°58'713.8
2019-Jul-17 21:00N 26°02' W 080°02'510.1
2019-Jul-17 20:30N 26°06' W 080°06'1 1.6
2019-Jul-17 19:58N 26°05' W 080°07'0 0.0
2019-Jul-17 19:25N 26°05' W 080°07'0 0.0
2019-Jul-17 18:58N 26°05' W 080°07'0 0.0
2019-Jul-17 18:25N 26°05' W 080°07'0 0.0
2019-Jul-17 17:58N 26°05' W 080°07'0 0.0
2019-Jul-17 17:28N 26°05' W 080°07'0 0.0
2019-Jul-17 16:58N 26°05' W 080°07'0 0.0
2019-Jul-17 16:28N 26°05' W 080°07'0 0.0
2019-Jul-17 15:58N 26°05' W 080°07'0 0.0
2019-Jul-17 15:28N 26°05' W 080°07'0 0.0
2019-Jul-17 14:58N 26°05' W 080°07'0 0.0
2019-Jul-17 14:25N 26°05' W 080°07'0 0.0
2019-Jul-17 13:55N 26°05' W 080°07'0 0.0
2019-Jul-17 13:25N 26°05' W 080°07'0 0.0
2019-Jul-17 12:58N 26°05' W 080°07'0 0.0
2019-Jul-17 12:28N 26°05' W 080°07'0 0.0
2019-Jul-17 11:58N 26°05' W 080°07'0 0.0
2019-Jul-17 11:28N 26°05' W 080°07'0 0.0
2019-Jul-17 10:58N 26°05' W 080°07'0 0.6
2019-Jul-17 10:30N 26°05' W 080°07'4 8.2
2019-Jul-17 10:00N 26°06' W 080°03'612.7
2019-Jul-17 09:30N 26°09' W 079°56'611.2
2019-Jul-17 09:00N 26°11' W 079°51'510.3
2019-Jul-17 08:30N 26°09' W 079°46'5 9.6
2019-Jul-17 08:00N 26°07' W 079°41'4 8.8
2019-Jul-17 07:30N 26°11' W 079°39'5 8.9
2019-Jul-17 07:00N 26°15' W 079°35'510.9
2019-Jul-17 06:30N 26°16' W 079°30'510.9
2019-Jul-17 06:00N 26°18' W 079°24'611.6
2019-Jul-17 05:30N 26°18' W 079°17'27 0.9
2019-Jul-16 00:00N 26°12' W 078°48'44 8.8 090 / 131018.227.0 29.024.831.0
2019-Jul-15 19:02N 25°57' W 079°34'010.9
2019-Jul-15 19:00N 25°57' W 079°34'611.1
2019-Jul-15 18:30N 25°52' W 079°37'612.0
2019-Jul-15 18:00N 25°46' W 079°39'612.6
2019-Jul-15 17:30N 25°40' W 079°38'612.6
2019-Jul-15 17:00N 25°34' W 079°38'612.3
2019-Jul-15 16:30N 25°28' W 079°38'99 9.4
2019-Jul-15 06:00N 24°12' W 080°48'46 9.6 080 / 171017.610.8 28.023.731.0
2019-Jul-15 01:14N 24°18' W 081°38'51 2.7
2019-Jul-14 06:00N 24°24' W 080°42'8811.9 080 / 141017.810.8 27.022.631.0
2019-Jul-13 22:36N 25°40' W 079°53'114.0
2019-Jul-13 22:30N 25°41' W 079°53'714.1
2019-Jul-13 22:00N 25°48' W 079°56'713.8
2019-Jul-13 21:30N 25°54' W 079°59'714.3
2019-Jul-13 21:00N 26°01' W 080°02'611.6
2019-Jul-13 20:30N 26°06' W 080°05'2 3.1
2019-Jul-13 19:59N 26°05' W 080°07'0 0.0
2019-Jul-13 19:29N 26°05' W 080°07'0 0.0
2019-Jul-13 18:59N 26°05' W 080°07'0 0.0
2019-Jul-13 18:26N 26°05' W 080°07'0 0.0
2019-Jul-13 17:59N 26°05' W 080°07'0 0.0
2019-Jul-13 17:26N 26°05' W 080°07'0 0.0
2019-Jul-13 16:59N 26°05' W 080°07'0 0.0
2019-Jul-13 16:29N 26°05' W 080°07'0 0.0
2019-Jul-13 15:59N 26°05' W 080°07'0 0.0
2019-Jul-13 15:29N 26°05' W 080°07'0 0.0
2019-Jul-13 14:56N 26°05' W 080°07'0 0.0
2019-Jul-13 14:29N 26°05' W 080°07'0 0.0
2019-Jul-13 13:56N 26°05' W 080°07'0 0.0
2019-Jul-13 13:26N 26°05' W 080°07'0 0.0
2019-Jul-13 12:59N 26°05' W 080°07'0 0.0
2019-Jul-13 12:29N 26°05' W 080°07'0 0.0
2019-Jul-13 11:59N 26°05' W 080°07'0 0.0
2019-Jul-13 11:26N 26°05' W 080°07'0 0.0
2019-Jul-13 10:59N 26°05' W 080°07'1 1.3
2019-Jul-13 10:30N 26°06' W 080°07'5 9.3
2019-Jul-13 10:00N 26°05' W 080°01'611.5
2019-Jul-13 09:30N 26°01' W 079°57'611.8
2019-Jul-13 09:00N 25°56' W 079°53'713.7
2019-Jul-13 08:30N 25°51' W 079°48'816.0
2019-Jul-13 08:00N 25°43' W 079°46'816.4
2019-Jul-13 07:30N 25°35' W 079°45'816.8
2019-Jul-13 07:00N 25°27' W 079°45'816.3
2019-Jul-13 06:30N 25°19' W 079°46'1325.4
2019-Jul-13 06:00N 25°06' W 079°48'114 6.7 120 / 171016.310.8 29.024.831.0
2019-Jul-12 13:04N 24°33' W 081°49'83 6.4
2019-Jul-12 00:00N 24°24' W 080°18'86 7.4 140 / 81015.310.8 29.024.831.0
2019-Jul-11 12:14N 25°42' W 079°38'3 6.1
2019-Jul-11 11:44N 25°45' W 079°38'3 6.1
2019-Jul-11 11:18N 25°48' W 079°38'2 5.9
2019-Jul-11 11:00N 25°50' W 079°38'3 5.8
2019-Jul-11 10:30N 25°52' W 079°37'3 6.4
2019-Jul-11 10:00N 25°55' W 079°35'3 6.5
2019-Jul-11 09:30N 25°58' W 079°33'3 6.5
2019-Jul-11 09:00N 26°01' W 079°31'3 6.3
2019-Jul-11 08:29N 26°04' W 079°30'3 6.8
2019-Jul-11 08:00N 26°06' W 079°28'4 7.1
2019-Jul-11 07:30N 26°09' W 079°25'4 7.4
2019-Jul-11 07:00N 26°12' W 079°23'4 7.8
2019-Jul-11 06:29N 26°15' W 079°19'121 4.9
2019-Jul-10 06:00N 25°36' W 077°12'30 1.2 140 / 171016.610.8 27.024.130.0
2019-Jul-09 06:00N 25°48' W 077°42'   190 / 201015.110.8 27.022.630.0
Track history (hours):
 
Tides and Currents Weather Stations Pressure Air Temp Water Temp Dewpoint Dewpoint Depression Visibility Wind Speed Wind Dir Waves Ship Positions

Majesty of the Seas (Bahamas)

Last reported at 2019-Jul-19 06:00 UTC. Time now 2019-Jul-20 01:40 UTC.
Position N 20°18' W 086°18'.

Length 268 m; draft 8 m.

Type: Ship. MMSI: 311734000.

Wind from 080 at 15 knots

Barometer 1015.3 mb
Air temperature 28.0 ° C
Visibility: greater than 10.8 NM
Dewpoint 25.2 ° C
Water temperature 30.1 ° C

Date/timePositionNaut miles runAvg speedWind from/ knotsBaromVisibWave heightAir tempDewpointWater temp
2019-Jul-19 06:00N 20°18' W 086°18'39416.4 080 / 151015.310.8 28.025.230.1
2019-Jul-18 06:00N 24°12' W 080°36'9714.2 100 / 121018.110.8 28.025.231.0
2019-Jul-17 23:08N 25°38' W 079°46'213.5
2019-Jul-17 22:58N 25°40' W 079°46'613.4
2019-Jul-17 22:30N 25°46' W 079°48'713.3
2019-Jul-17 22:00N 25°51' W 079°53'713.9
2019-Jul-17 21:30N 25°56' W 079°58'713.8
2019-Jul-17 21:00N 26°02' W 080°02'510.1
2019-Jul-17 20:30N 26°06' W 080°06'1 1.6
2019-Jul-17 19:58N 26°05' W 080°07'0 0.0
2019-Jul-17 19:25N 26°05' W 080°07'0 0.0
2019-Jul-17 18:58N 26°05' W 080°07'0 0.0
2019-Jul-17 18:25N 26°05' W 080°07'0 0.0
2019-Jul-17 17:58N 26°05' W 080°07'0 0.0
2019-Jul-17 17:28N 26°05' W 080°07'0 0.0
2019-Jul-17 16:58N 26°05' W 080°07'0 0.0
2019-Jul-17 16:28N 26°05' W 080°07'0 0.0
2019-Jul-17 15:58N 26°05' W 080°07'0 0.0
2019-Jul-17 15:28N 26°05' W 080°07'0 0.0
2019-Jul-17 14:58N 26°05' W 080°07'0 0.0
2019-Jul-17 14:25N 26°05' W 080°07'0 0.0
2019-Jul-17 13:55N 26°05' W 080°07'0 0.0
2019-Jul-17 13:25N 26°05' W 080°07'0 0.0
2019-Jul-17 12:58N 26°05' W 080°07'0 0.0
2019-Jul-17 12:28N 26°05' W 080°07'0 0.0
2019-Jul-17 11:58N 26°05' W 080°07'0 0.0
2019-Jul-17 11:28N 26°05' W 080°07'0 0.0
2019-Jul-17 10:58N 26°05' W 080°07'0 0.6
2019-Jul-17 10:30N 26°05' W 080°07'4 8.2
2019-Jul-17 10:00N 26°06' W 080°03'612.7
2019-Jul-17 09:30N 26°09' W 079°56'611.2
2019-Jul-17 09:00N 26°11' W 079°51'510.3
2019-Jul-17 08:30N 26°09' W 079°46'5 9.6
2019-Jul-17 08:00N 26°07' W 079°41'4 8.8
2019-Jul-17 07:30N 26°11' W 079°39'5 8.9
2019-Jul-17 07:00N 26°15' W 079°35'510.9
2019-Jul-17 06:30N 26°16' W 079°30'510.9
2019-Jul-17 06:00N 26°18' W 079°24'611.6
2019-Jul-17 05:30N 26°18' W 079°17'27 0.9
2019-Jul-16 00:00N 26°12' W 078°48'44 8.8 090 / 131018.227.0 29.024.831.0
2019-Jul-15 19:02N 25°57' W 079°34'010.9
2019-Jul-15 19:00N 25°57' W 079°34'611.1
2019-Jul-15 18:30N 25°52' W 079°37'612.0
2019-Jul-15 18:00N 25°46' W 079°39'612.6
2019-Jul-15 17:30N 25°40' W 079°38'612.6
2019-Jul-15 17:00N 25°34' W 079°38'612.3
2019-Jul-15 16:30N 25°28' W 079°38'99 9.4
2019-Jul-15 06:00N 24°12' W 080°48'46 9.6 080 / 171017.610.8 28.023.731.0
2019-Jul-15 01:14N 24°18' W 081°38'51 2.7
2019-Jul-14 06:00N 24°24' W 080°42'8811.9 080 / 141017.810.8 27.022.631.0
2019-Jul-13 22:36N 25°40' W 079°53'114.0
2019-Jul-13 22:30N 25°41' W 079°53'714.1
2019-Jul-13 22:00N 25°48' W 079°56'713.8
2019-Jul-13 21:30N 25°54' W 079°59'714.3
2019-Jul-13 21:00N 26°01' W 080°02'611.6
2019-Jul-13 20:30N 26°06' W 080°05'2 3.1
2019-Jul-13 19:59N 26°05' W 080°07'0 0.0
2019-Jul-13 19:29N 26°05' W 080°07'0 0.0
2019-Jul-13 18:59N 26°05' W 080°07'0 0.0
2019-Jul-13 18:26N 26°05' W 080°07'0 0.0
2019-Jul-13 17:59N 26°05' W 080°07'0 0.0
2019-Jul-13 17:26N 26°05' W 080°07'0 0.0
2019-Jul-13 16:59N 26°05' W 080°07'0 0.0
2019-Jul-13 16:29N 26°05' W 080°07'0 0.0
2019-Jul-13 15:59N 26°05' W 080°07'0 0.0
2019-Jul-13 15:29N 26°05' W 080°07'0 0.0
2019-Jul-13 14:56N 26°05' W 080°07'0 0.0
2019-Jul-13 14:29N 26°05' W 080°07'0 0.0
2019-Jul-13 13:56N 26°05' W 080°07'0 0.0
2019-Jul-13 13:26N 26°05' W 080°07'0 0.0
2019-Jul-13 12:59N 26°05' W 080°07'0 0.0
2019-Jul-13 12:29N 26°05' W 080°07'0 0.0
2019-Jul-13 11:59N 26°05' W 080°07'0 0.0
2019-Jul-13 11:26N 26°05' W 080°07'0 0.0
2019-Jul-13 10:59N 26°05' W 080°07'1 1.3
2019-Jul-13 10:30N 26°06' W 080°07'5 9.3
2019-Jul-13 10:00N 26°05' W 080°01'611.5
2019-Jul-13 09:30N 26°01' W 079°57'611.8
2019-Jul-13 09:00N 25°56' W 079°53'713.7
2019-Jul-13 08:30N 25°51' W 079°48'816.0
2019-Jul-13 08:00N 25°43' W 079°46'816.4
2019-Jul-13 07:30N 25°35' W 079°45'816.8
2019-Jul-13 07:00N 25°27' W 079°45'816.3
2019-Jul-13 06:30N 25°19' W 079°46'1325.4
2019-Jul-13 06:00N 25°06' W 079°48'114 6.7 120 / 171016.310.8 29.024.831.0
2019-Jul-12 13:04N 24°33' W 081°49'83 6.4
2019-Jul-12 00:00N 24°24' W 080°18'86 7.4 140 / 81015.310.8 29.024.831.0
2019-Jul-11 12:14N 25°42' W 079°38'3 6.1
2019-Jul-11 11:44N 25°45' W 079°38'3 6.1
2019-Jul-11 11:18N 25°48' W 079°38'2 5.9
2019-Jul-11 11:00N 25°50' W 079°38'3 5.8
2019-Jul-11 10:30N 25°52' W 079°37'3 6.4
2019-Jul-11 10:00N 25°55' W 079°35'3 6.5
2019-Jul-11 09:30N 25°58' W 079°33'3 6.5
2019-Jul-11 09:00N 26°01' W 079°31'3 6.3
2019-Jul-11 08:29N 26°04' W 079°30'3 6.8
2019-Jul-11 08:00N 26°06' W 079°28'4 7.1
2019-Jul-11 07:30N 26°09' W 079°25'4 7.4
2019-Jul-11 07:00N 26°12' W 079°23'4 7.8
2019-Jul-11 06:29N 26°15' W 079°19'121 4.9
2019-Jul-10 06:00N 25°36' W 077°12'30 1.2 140 / 171016.610.8 27.024.130.0
2019-Jul-09 06:00N 25°48' W 077°42'   190 / 201015.110.8 27.022.630.0

Dump ship's entire track history